Time;durP1;ratioP1;P1;durP2;ratioP2;P2;SDS_P1;SDS_P2;PMS_P1;PMS_P2;Temp;Humidity;BMP_temperature;BMP_pressure;BME280_temperature;BME280_humidity;BME280_pressure;Samples;Min_cycle;Max_cycle;Signal;HPM_P1;HPM_P2
2021/08/27 00:00:04;;;;;;;2.30;1.53;;;13.40;99.90;;;;;;5076664;28;20312;-64
2021/08/27 00:02:30;;;;;;;2.90;2.60;;;13.40;99.90;;;;;;5076838;28;20417;-64
2021/08/27 00:04:56;;;;;;;2.60;1.70;;;13.50;99.90;;;;;;5076736;28;20405;-64
2021/08/27 00:07:21;;;;;;;3.50;1.47;;;13.50;99.90;;;;;;5074841;28;20674;-64
2021/08/27 00:09:47;;;;;;;3.53;2.07;;;13.60;99.90;;;;;;5076605;28;20522;-65
2021/08/27 00:12:13;;;;;;;2.63;2.30;;;13.60;99.90;;;;;;5076455;28;20178;-64
2021/08/27 00:14:38;;;;;;;5.73;2.07;;;13.60;99.90;;;;;;5076611;28;20174;-64
2021/08/27 00:17:04;;;;;;;3.27;2.27;;;13.70;99.90;;;;;;5076082;28;20171;-64
2021/08/27 00:19:30;;;;;;;2.40;1.90;;;13.70;99.90;;;;;;5076367;28;20198;-63
2021/08/27 00:21:55;;;;;;;3.33;1.97;;;13.80;99.90;;;;;;5076395;28;20167;-63
2021/08/27 00:24:21;;;;;;;3.17;2.23;;;13.80;99.90;;;;;;5076286;28;20185;-64
2021/08/27 00:26:46;;;;;;;1.97;1.80;;;13.80;99.90;;;;;;5075719;28;20201;-64
2021/08/27 00:29:12;;;;;;;2.73;2.30;;;13.90;99.90;;;;;;5076091;28;20196;-65
2021/08/27 00:31:38;;;;;;;2.83;2.13;;;13.90;99.90;;;;;;5076020;28;20194;-64
2021/08/27 00:34:06;;;;;;;2.37;2.00;;;13.90;99.90;;;;;;5076235;28;20168;-64
2021/08/27 00:36:32;;;;;;;2.00;1.80;;;14.00;99.90;;;;;;5075976;28;20262;-64
2021/08/27 00:38:59;;;;;;;2.60;2.40;;;14.00;99.90;;;;;;5075939;28;20469;-65
2021/08/27 00:41:24;;;;;;;4.27;2.07;;;14.10;99.90;;;;;;5094983;28;20175;-63
2021/08/27 00:43:50;;;;;;;7.50;1.90;;;14.10;99.90;;;;;;5096121;28;20462;-63
2021/08/27 00:46:15;;;;;;;3.57;1.90;;;14.10;99.90;;;;;;5096236;28;20203;-63
2021/08/27 00:48:41;;;;;;;1.80;1.70;;;14.20;99.90;;;;;;5095582;28;20186;-64
2021/08/27 00:51:07;;;;;;;2.33;2.13;;;14.10;99.90;;;;;;5096109;28;20167;-66
2021/08/27 00:53:36;;;;;;;2.13;2.03;;;14.20;99.90;;;;;;5096191;28;20167;-64
2021/08/27 00:56:02;;;;;;;2.77;1.70;;;14.20;99.90;;;;;;5096185;28;20406;-64
2021/08/27 00:58:28;;;;;;;2.70;2.50;;;14.20;99.90;;;;;;5095384;28;20429;-65
2021/08/27 01:00:53;;;;;;;5.80;2.03;;;14.20;99.90;;;;;;5095985;28;20409;-64
2021/08/27 01:03:20;;;;;;;1.83;1.73;;;14.30;99.90;;;;;;5095945;28;20203;-63
2021/08/27 01:05:51;;;;;;;2.47;2.23;;;14.30;99.90;;;;;;5095734;28;20244;-64
2021/08/27 01:08:36;;;;;;;2.23;2.03;;;14.30;99.90;;;;;;5095271;28;20460;-64
2021/08/27 01:11:24;;;;;;;1.93;1.63;;;14.30;99.90;;;;;;5095763;28;20397;-64
2021/08/27 01:13:59;;;;;;;2.60;1.43;;;14.40;99.90;;;;;;5095612;28;20418;-64
2021/08/27 01:16:53;;;;;;;2.40;2.10;;;14.40;99.90;;;;;;5095896;28;20405;-64
2021/08/27 01:19:37;;;;;;;2.00;1.83;;;14.40;99.90;;;;;;5095543;28;20408;-64
2021/08/27 01:22:39;;;;;;;2.83;2.23;;;14.40;99.90;;;;;;5095575;28;20414;-64
2021/08/27 01:25:08;;;;;;;2.40;2.20;;;14.40;99.90;;;;;;5095551;28;20794;-65
2021/08/27 01:27:36;;;;;;;2.33;2.20;;;14.40;99.90;;;;;;5094924;28;20431;-64
2021/08/27 01:30:09;;;;;;;2.20;2.07;;;14.40;99.90;;;;;;5095274;28;20425;-64
2021/08/27 01:32:46;;;;;;;1.83;1.63;;;14.40;99.90;;;;;;5095096;28;20478;-64
2021/08/27 01:35:14;;;;;;;4.07;2.40;;;14.40;99.90;;;;;;5095335;28;20375;-65
2021/08/27 01:37:47;;;;;;;2.93;2.23;;;14.40;99.90;;;;;;5094843;28;20412;-65
2021/08/27 01:40:15;;;;;;;2.47;2.27;;;14.40;99.90;;;;;;5084097;28;20433;-64
2021/08/27 01:42:42;;;;;;;2.70;1.97;;;14.30;99.90;;;;;;5074803;28;20442;-64
2021/08/27 01:45:09;;;;;;;2.23;2.00;;;14.40;99.90;;;;;;5075039;28;20392;-64
2021/08/27 01:47:36;;;;;;;2.20;2.00;;;14.40;99.90;;;;;;5074330;28;20480;-64
2021/08/27 01:50:02;;;;;;;2.47;1.97;;;14.30;99.90;;;;;;5074667;28;20455;-64
2021/08/27 01:52:29;;;;;;;2.33;2.13;;;14.30;99.90;;;;;;5073688;28;20385;-64
2021/08/27 01:54:57;;;;;;;2.10;2.00;;;14.30;99.90;;;;;;5074644;28;20517;-65
2021/08/27 01:57:24;;;;;;;4.70;2.00;;;14.30;99.90;;;;;;5074143;28;20763;-64
2021/08/27 01:59:50;;;;;;;2.33;1.70;;;14.30;99.90;;;;;;5074496;28;20465;-64
2021/08/27 02:02:16;;;;;;;2.83;2.63;;;14.30;99.90;;;;;;5073247;28;20418;-65
2021/08/27 02:04:49;;;;;;;2.30;2.20;;;14.30;99.90;;;;;;5074340;28;20618;-63
2021/08/27 02:07:15;;;;;;;2.00;1.80;;;14.30;99.90;;;;;;5072386;28;20468;-65
2021/08/27 02:09:43;;;;;;;2.23;1.70;;;14.20;99.90;;;;;;5074128;28;20781;-63
2021/08/27 02:12:09;;;;;;;6.23;2.40;;;14.30;99.90;;;;;;5074243;28;20442;-64
2021/08/27 02:14:38;;;;;;;2.40;2.13;;;14.20;99.90;;;;;;5074240;28;20513;-64
2021/08/27 02:17:08;;;;;;;2.70;1.80;;;14.20;99.90;;;;;;5073846;28;20827;-64
2021/08/27 02:19:35;;;;;;;2.10;1.90;;;14.20;99.90;;;;;;5074150;28;20424;-64
2021/08/27 02:22:04;;;;;;;3.73;3.23;;;14.20;99.90;;;;;;5074070;28;20410;-63
2021/08/27 02:24:37;;;;;;;3.00;2.70;;;14.20;99.90;;;;;;5073952;28;20410;-64
2021/08/27 02:27:06;;;;;;;1.50;1.40;;;14.10;99.90;;;;;;5073560;28;20531;-63
2021/08/27 02:29:34;;;;;;;2.03;1.93;;;14.10;99.90;;;;;;5073948;28;20939;-64
2021/08/27 02:32:06;;;;;;;3.20;2.60;;;14.10;99.90;;;;;;5073824;28;20433;-64
2021/08/27 02:34:33;;;;;;;2.60;2.20;;;14.10;99.90;;;;;;5072514;28;20449;-64
2021/08/27 02:37:02;;;;;;;2.30;2.10;;;14.10;99.90;;;;;;5072099;28;20981;-64
2021/08/27 02:39:29;;;;;;;5.97;2.30;;;14.10;99.90;;;;;;5077072;28;20536;-64
2021/08/27 02:41:56;;;;;;;2.20;2.00;;;14.10;99.90;;;;;;5093888;28;20535;-64
2021/08/27 02:44:22;;;;;;;5.20;2.97;;;14.10;99.90;;;;;;5094004;28;20406;-64
2021/08/27 02:46:48;;;;;;;2.47;2.27;;;14.10;99.90;;;;;;5093523;28;20427;-65
2021/08/27 02:49:14;;;;;;;3.00;2.10;;;14.00;99.90;;;;;;5093653;28;20424;-64
2021/08/27 02:51:52;;;;;;;3.50;2.40;;;14.00;99.90;;;;;;5093873;28;20461;-64
2021/08/27 02:54:21;;;;;;;1.70;1.60;;;14.00;99.90;;;;;;5093708;28;20168;-64
2021/08/27 02:56:49;;;;;;;2.50;2.10;;;14.10;99.90;;;;;;5093312;28;20409;-64
2021/08/27 02:59:18;;;;;;;2.30;2.07;;;14.00;99.90;;;;;;5093521;28;20528;-64
2021/08/27 03:01:52;;;;;;;5.40;2.00;;;14.10;99.90;;;;;;5093562;28;20409;-63
2021/08/27 03:04:46;;;;;;;3.93;1.87;;;14.10;99.90;;;;;;5093665;28;20392;-64
2021/08/27 03:07:14;;;;;;;1.93;1.73;;;14.00;99.90;;;;;;5093171;28;20517;-64
2021/08/27 03:10:02;;;;;;;2.77;2.57;;;14.00;99.90;;;;;;5093557;28;20424;-64
2021/08/27 03:12:57;;;;;;;3.63;3.33;;;14.00;99.90;;;;;;5093563;28;20402;-64
2021/08/27 03:15:31;;;;;;;2.70;2.50;;;14.00;99.90;;;;;;5071154;28;20451;-64
2021/08/27 03:18:11;;;;;;;3.30;2.00;;;14.00;99.90;;;;;;5093232;28;20420;-64
2021/08/27 03:21:00;;;;;;;4.20;3.03;;;14.00;99.90;;;;;;5093648;28;20440;-64
2021/08/27 03:23:31;;;;;;;2.63;2.43;;;14.00;99.90;;;;;;5092668;28;20420;-64
2021/08/27 03:26:01;;;;;;;2.40;2.20;;;14.00;99.90;;;;;;5093568;28;20453;-64
2021/08/27 03:28:28;;;;;;;2.30;2.20;;;14.00;99.90;;;;;;5092866;28;20429;-65
2021/08/27 03:30:56;;;;;;;2.23;2.10;;;14.00;99.90;;;;;;5093293;28;20407;-64
2021/08/27 03:33:24;;;;;;;2.60;2.40;;;14.00;99.90;;;;;;5093143;28;20453;-64
2021/08/27 03:35:53;;;;;;;2.40;2.20;;;14.00;99.90;;;;;;5093200;28;20419;-64
2021/08/27 03:38:23;;;;;;;2.30;2.10;;;13.90;99.90;;;;;;5092764;28;20456;-64
2021/08/27 03:40:50;;;;;;;2.03;1.90;;;13.90;99.90;;;;;;5078498;28;20413;-64
2021/08/27 03:43:16;;;;;;;2.70;2.47;;;13.90;99.90;;;;;;5071839;28;20422;-65
2021/08/27 03:45:44;;;;;;;2.10;2.00;;;13.80;99.90;;;;;;5073032;28;20541;-64
2021/08/27 03:48:11;;;;;;;4.80;2.67;;;13.80;99.90;;;;;;5072548;28;20471;-65
2021/08/27 03:50:38;;;;;;;3.77;2.53;;;13.80;99.90;;;;;;5072943;28;20392;-65
2021/08/27 03:53:07;;;;;;;2.83;2.23;;;13.80;99.90;;;;;;5072759;28;20414;-65
2021/08/27 03:55:34;;;;;;;2.80;2.43;;;13.80;99.90;;;;;;5073147;28;20402;-62
2021/08/27 03:58:00;;;;;;;2.40;2.20;;;13.80;99.90;;;;;;5072369;28;20493;-65
2021/08/27 04:00:26;;;;;;;3.27;2.67;;;13.80;99.90;;;;;;5073066;28;20815;-64
2021/08/27 04:02:53;;;;;;;5.00;2.27;;;13.80;99.90;;;;;;5072885;28;20430;-64
2021/08/27 04:05:21;;;;;;;2.43;2.10;;;13.80;99.90;;;;;;5072503;28;20414;-65
2021/08/27 04:07:48;;;;;;;4.27;3.17;;;13.80;99.90;;;;;;5072380;28;20467;-64
2021/08/27 04:10:17;;;;;;;7.80;2.30;;;13.90;99.90;;;;;;5072475;28;20966;-64
2021/08/27 04:12:43;;;;;;;3.53;2.80;;;13.90;99.90;;;;;;5072740;28;20460;-64
2021/08/27 04:15:11;;;;;;;4.10;3.60;;;13.90;99.90;;;;;;5072945;28;20426;-64
2021/08/27 04:17:37;;;;;;;3.40;3.10;;;13.90;99.90;;;;;;5076061;28;20405;-65
2021/08/27 04:20:05;;;;;;;6.17;4.47;;;13.90;99.90;;;;;;5076175;28;20429;-65
2021/08/27 04:22:31;;;;;;;7.17;3.07;;;13.90;99.90;;;;;;5076318;28;20748;-65
2021/08/27 04:24:56;;;;;;;3.50;3.00;;;13.90;99.90;;;;;;5074884;28;20412;-65
2021/08/27 04:27:22;;;;;;;6.77;4.00;;;13.90;99.90;;;;;;5075969;28;20206;-64
2021/08/27 04:29:48;;;;;;;5.20;4.70;;;13.90;99.90;;;;;;5076068;28;20187;-65
2021/08/27 04:32:13;;;;;;;5.67;4.13;;;13.80;99.90;;;;;;5076082;28;20194;-65
2021/08/27 04:34:39;;;;;;;4.47;3.20;;;13.80;99.90;;;;;;5076193;28;20255;-64
2021/08/27 04:37:05;;;;;;;3.97;3.47;;;13.80;99.90;;;;;;5075688;28;20269;-65
2021/08/27 04:39:30;;;;;;;6.20;5.70;;;13.80;99.90;;;;;;5079812;28;20198;-65
2021/08/27 04:41:56;;;;;;;3.30;3.00;;;13.80;99.90;;;;;;5096216;28;20217;-65
2021/08/27 04:44:22;;;;;;;3.90;3.47;;;13.80;99.90;;;;;;5096097;28;20171;-65
2021/08/27 04:46:48;;;;;;;4.00;3.60;;;13.80;99.90;;;;;;5095786;28;20221;-65
2021/08/27 04:49:13;;;;;;;6.17;4.00;;;13.80;99.90;;;;;;5095846;28;20191;-64
2021/08/27 04:51:39;;;;;;;5.90;4.50;;;13.80;99.90;;;;;;5095933;28;20401;-65
2021/08/27 04:54:05;;;;;;;6.33;4.13;;;13.80;99.90;;;;;;5095972;28;20168;-64
2021/08/27 04:56:30;;;;;;;3.80;3.50;;;13.80;99.90;;;;;;5095689;28;20170;-66
2021/08/27 04:58:56;;;;;;;4.13;3.80;;;13.80;99.90;;;;;;5095718;28;20191;-65
2021/08/27 05:01:21;;;;;;;3.80;3.40;;;13.80;99.90;;;;;;5095965;28;20168;-64
2021/08/27 05:03:47;;;;;;;8.83;4.87;;;13.80;99.90;;;;;;5095820;28;20209;-65
2021/08/27 05:06:13;;;;;;;4.37;3.97;;;13.80;99.90;;;;;;5095544;28;20206;-65
2021/08/27 05:08:38;;;;;;;4.20;3.80;;;13.80;99.90;;;;;;5095192;28;20262;-65
2021/08/27 05:11:04;;;;;;;3.13;2.90;;;13.80;99.90;;;;;;5095641;28;20408;-65
2021/08/27 05:13:30;;;;;;;4.07;3.67;;;13.80;99.90;;;;;;5095726;28;20192;-64
2021/08/27 05:15:56;;;;;;;4.67;4.10;;;13.90;99.90;;;;;;5095837;28;20400;-64
2021/08/27 05:18:22;;;;;;;3.77;3.47;;;13.90;99.90;;;;;;5095006;28;20225;-64
2021/08/27 05:20:48;;;;;;;4.63;4.10;;;13.90;99.90;;;;;;5094160;28;20937;-64
2021/08/27 05:23:13;;;;;;;6.00;3.23;;;14.00;99.90;;;;;;5095591;28;20414;-64
2021/08/27 05:25:39;;;;;;;6.57;4.00;;;14.00;99.90;;;;;;5095616;28;20653;-64
2021/08/27 05:28:05;;;;;;;5.07;3.53;;;14.10;99.90;;;;;;5094876;28;20171;-64
2021/08/27 05:30:30;;;;;;;3.60;3.30;;;14.10;99.90;;;;;;5095200;28;20643;-64
2021/08/27 05:32:57;;;;;;;4.63;4.23;;;14.20;99.90;;;;;;5095016;28;20190;-64
2021/08/27 05:35:23;;;;;;;4.33;3.93;;;14.30;99.90;;;;;;5095162;28;20258;-64
2021/08/27 05:37:49;;;;;;;5.87;3.90;;;14.40;99.90;;;;;;5094863;28;20402;-64
2021/08/27 05:40:15;;;;;;;3.77;3.37;;;14.60;99.90;;;;;;5085019;28;20483;-64
2021/08/27 05:42:41;;;;;;;4.67;3.70;;;14.70;99.90;;;;;;5074867;28;20176;-64
2021/08/27 05:45:08;;;;;;;4.10;3.40;;;14.80;99.90;;;;;;5074758;28;20171;-64
2021/08/27 05:47:34;;;;;;;3.33;3.03;;;14.90;99.90;;;;;;5074105;28;20456;-65
2021/08/27 05:50:00;;;;;;;5.00;3.97;;;14.90;99.90;;;;;;5074583;28;20415;-64
2021/08/27 05:52:26;;;;;;;4.40;4.00;;;15.00;99.90;;;;;;5074358;28;20973;-64
2021/08/27 05:54:52;;;;;;;3.80;3.50;;;15.10;99.90;;;;;;5074632;28;20172;-65
2021/08/27 05:57:18;;;;;;;3.77;3.47;;;15.10;99.90;;;;;;5074462;28;20546;-65
2021/08/27 05:59:44;;;;;;;5.67;3.80;;;15.00;99.90;;;;;;5074230;28;20980;-66
2021/08/27 06:02:09;;;;;;;4.87;4.10;;;15.00;99.90;;;;;;5074307;28;20181;-63
2021/08/27 06:04:35;;;;;;;3.53;3.10;;;14.90;99.90;;;;;;5074386;28;20611;-65
2021/08/27 06:07:01;;;;;;;3.30;3.03;;;14.90;99.90;;;;;;5073874;28;20455;-63
2021/08/27 06:09:26;;;;;;;3.70;3.20;;;14.90;99.90;;;;;;5074184;28;20204;-65
2021/08/27 06:11:52;;;;;;;4.63;3.47;;;14.90;99.90;;;;;;5074355;28;20612;-63
2021/08/27 06:14:18;;;;;;;6.63;4.30;;;14.90;99.90;;;;;;5074414;28;20177;-64
2021/08/27 06:16:44;;;;;;;5.90;4.53;;;14.90;99.90;;;;;;5073856;28;20599;-64
2021/08/27 06:19:10;;;;;;;3.87;3.57;;;14.90;99.90;;;;;;5073992;28;20450;-64
2021/08/27 06:21:38;;;;;;;5.20;3.60;;;15.00;99.90;;;;;;5073995;28;20172;-64
2021/08/27 06:24:04;;;;;;;3.87;3.57;;;15.10;99.90;;;;;;5073908;28;20230;-63
2021/08/27 06:26:30;;;;;;;4.50;3.60;;;15.20;99.90;;;;;;5073566;28;20556;-67
2021/08/27 06:28:58;;;;;;;4.37;3.47;;;15.40;99.90;;;;;;5073690;28;20441;-64
2021/08/27 06:31:25;;;;;;;3.67;3.37;;;15.70;99.90;;;;;;5073409;28;20199;-65
2021/08/27 06:33:50;;;;;;;3.80;3.23;;;16.00;99.90;;;;;;5073533;28;20773;-64
2021/08/27 06:36:18;;;;;;;5.30;4.00;;;16.30;99.90;;;;;;5073640;28;20404;-62
2021/08/27 06:38:44;;;;;;;3.20;2.90;;;16.60;99.90;;;;;;5072813;28;20198;-62
2021/08/27 06:41:10;;;;;;;3.50;2.60;;;16.80;99.90;;;;;;5091157;28;20763;-64
2021/08/27 06:43:42;;;;;;;2.17;2.07;;;16.90;99.90;;;;;;5093752;28;20442;-63
2021/08/27 06:46:14;;;;;;;2.07;1.97;;;17.10;99.90;;;;;;5093660;28;20457;-63
2021/08/27 06:48:40;;;;;;;3.50;3.20;;;17.10;99.90;;;;;;5093472;28;20444;-63
2021/08/27 06:51:06;;;;;;;4.10;3.70;;;17.00;99.90;;;;;;5093773;28;20933;-61
2021/08/27 06:53:32;;;;;;;4.33;3.93;;;16.90;99.90;;;;;;5093782;28;20442;-61
2021/08/27 06:55:58;;;;;;;2.63;2.37;;;16.80;99.90;;;;;;5093660;28;20418;-65
2021/08/27 06:58:23;;;;;;;3.53;3.23;;;16.70;99.90;;;;;;5093127;28;20213;-63
2021/08/27 07:00:49;;;;;;;5.90;3.17;;;16.70;99.90;;;;;;5093476;28;20256;-63
2021/08/27 07:03:17;;;;;;;4.13;3.70;;;16.60;99.90;;;;;;5093587;28;20212;-65
2021/08/27 07:05:43;;;;;;;2.97;2.70;;;16.60;99.90;;;;;;5092205;28;20533;-63
2021/08/27 07:08:09;;;;;;;2.87;2.67;;;16.50;99.90;;;;;;5092996;28;20407;-63
2021/08/27 07:10:35;;;;;;;3.33;3.10;;;16.50;99.90;;;;;;5093508;28;20170;-64
2021/08/27 07:13:01;;;;;;;3.10;2.80;;;16.30;99.90;;;;;;5093487;28;20762;-63
2021/08/27 07:15:27;;;;;;;3.67;3.37;;;16.20;99.90;;;;;;5093465;28;20400;-63
2021/08/27 07:17:53;;;;;;;4.60;3.07;;;16.00;99.90;;;;;;5093085;28;20410;-63
2021/08/27 07:20:20;;;;;;;3.13;2.83;;;15.90;99.90;;;;;;5093533;28;20168;-66
2021/08/27 07:22:46;;;;;;;2.60;2.30;;;16.20;99.90;;;;;;5093329;28;20407;-63
2021/08/27 07:25:12;;;;;;;6.20;2.90;;;16.70;99.90;;;;;;5093470;28;20408;-64
2021/08/27 07:27:39;;;;;;;2.33;2.13;;;17.40;99.90;;;;;;5092773;28;20445;-63
2021/08/27 07:30:07;;;;;;;2.20;2.10;;;17.90;99.90;;;;;;5093181;28;20274;-66
2021/08/27 07:32:33;;;;;;;2.60;2.33;;;18.30;99.90;;;;;;5093325;28;20422;-64
2021/08/27 07:34:58;;;;;;;1.80;1.70;;;18.20;99.90;;;;;;5093328;28;20485;-64
2021/08/27 07:37:24;;;;;;;1.90;1.80;;;18.10;99.90;;;;;;5092797;28;20175;-64
2021/08/27 07:39:50;;;;;;;2.27;2.10;;;17.90;99.90;;;;;;5086334;28;20196;-63
2021/08/27 07:42:16;;;;;;;2.00;1.90;;;17.80;99.90;;;;;;5072117;28;20173;-64
2021/08/27 07:44:41;;;;;;;1.53;1.43;;;17.70;99.90;;;;;;5070852;28;20256;-66
2021/08/27 07:47:07;;;;;;;2.00;1.87;;;17.70;99.90;;;;;;5070711;28;20469;-64
2021/08/27 07:49:34;;;;;;;1.83;1.57;;;17.70;99.90;;;;;;5072269;28;20199;-65
2021/08/27 07:51:59;;;;;;;1.40;1.30;;;18.00;99.90;;;;;;5075639;28;20273;-64
2021/08/27 07:54:25;;;;;;;1.70;1.60;;;18.80;99.90;;;;;;5076282;28;20435;-64
2021/08/27 07:56:51;;;;;;;1.70;1.60;;;19.70;99.90;;;;;;5076432;28;20396;-64
2021/08/27 07:59:17;;;;;;;2.00;1.90;;;20.40;99.90;;;;;;5076662;28;20397;-64
2021/08/27 08:01:43;;;;;;;1.63;1.53;;;20.70;99.90;;;;;;5076915;28;20423;-64
2021/08/27 08:04:09;;;;;;;1.90;1.80;;;20.50;99.90;;;;;;5076765;28;20183;-64
2021/08/27 08:06:38;;;;;;;1.50;1.40;;;20.10;99.90;;;;;;5076270;28;20217;-67
2021/08/27 08:09:05;;;;;;;1.70;1.60;;;20.20;99.90;;;;;;5076572;28;20189;-64
2021/08/27 08:11:31;;;;;;;3.70;1.20;;;20.50;99.90;;;;;;5076417;28;20387;-64
2021/08/27 08:13:57;;;;;;;1.37;1.20;;;21.10;99.90;;;;;;5076430;28;20754;-64
2021/08/27 08:16:22;;;;;;;1.80;1.70;;;22.20;99.80;;;;;;5076379;28;20536;-65
2021/08/27 08:18:48;;;;;;;2.77;1.60;;;23.60;97.70;;;;;;5076027;28;20409;-63
2021/08/27 08:21:14;;;;;;;1.77;1.67;;;24.90;94.30;;;;;;5076281;28;20173;-64
2021/08/27 08:23:41;;;;;;;1.70;1.60;;;25.80;91.50;;;;;;5076116;28;20222;-64
2021/08/27 08:26:06;;;;;;;2.13;1.50;;;25.70;90.80;;;;;;5076304;28;20461;-65
2021/08/27 08:28:32;;;;;;;1.70;1.60;;;25.80;90.80;;;;;;5075799;28;20443;-64
2021/08/27 08:30:58;;;;;;;1.40;1.30;;;25.60;88.80;;;;;;5076019;28;20168;-64
2021/08/27 08:33:23;;;;;;;1.37;1.20;;;24.90;89.40;;;;;;5075942;28;20192;-64
2021/08/27 08:35:49;;;;;;;1.53;1.43;;;23.80;91.00;;;;;;5076128;28;20177;-64
2021/08/27 08:38:17;;;;;;;1.63;1.27;;;23.20;92.70;;;;;;5075334;28;20203;-65
2021/08/27 08:40:45;;;;;;;1.60;1.50;;;23.70;92.50;;;;;;5089733;28;20381;-64
2021/08/27 08:43:12;;;;;;;7.23;1.50;;;23.80;92.50;;;;;;5096200;28;20416;-65
2021/08/27 08:45:45;;;;;;;1.43;1.40;;;23.40;92.80;;;;;;5096061;28;20380;-64
2021/08/27 08:48:11;;;;;;;2.77;1.70;;;22.80;92.90;;;;;;5095802;28;20378;-64
2021/08/27 08:50:39;;;;;;;1.47;1.37;;;22.30;93.70;;;;;;5096279;28;20865;-64
2021/08/27 08:53:05;;;;;;;0.70;0.70;;;21.90;94.00;;;;;;5095954;28;20373;-64
2021/08/27 08:55:32;;;;;;;1.80;1.70;;;21.70;93.70;;;;;;5096005;28;20410;-64
2021/08/27 08:57:59;;;;;;;1.40;1.23;;;21.40;93.50;;;;;;5095600;28;20397;-65
2021/08/27 09:00:25;;;;;;;1.23;1.23;;;21.10;94.50;;;;;;5096051;28;20423;-65
2021/08/27 09:02:50;;;;;;;1.27;0.90;;;20.60;94.80;;;;;;5095465;28;20436;-64
2021/08/27 09:05:16;;;;;;;4.80;1.30;;;20.30;95.60;;;;;;5095757;28;20387;-64
2021/08/27 09:07:42;;;;;;;2.03;1.33;;;20.10;96.20;;;;;;5095359;28;20242;-65
2021/08/27 09:10:08;;;;;;;1.67;1.57;;;19.80;97.70;;;;;;5095721;28;20597;-65
2021/08/27 09:12:34;;;;;;;0.90;0.90;;;19.60;98.20;;;;;;5095720;28;20369;-64
2021/08/27 09:15:09;;;;;;;1.23;1.10;;;19.30;98.10;;;;;;5095737;28;20898;-64
2021/08/27 09:17:39;;;;;;;1.30;1.30;;;19.20;98.40;;;;;;5095398;28;20227;-65
2021/08/27 09:20:07;;;;;;;1.20;1.10;;;19.60;98.20;;;;;;5095427;28;20832;-64
2021/08/27 09:22:53;;;;;;;0.90;0.90;;;19.90;98.10;;;;;;5095203;28;20404;-64
2021/08/27 09:25:32;;;;;;;0.90;0.90;;;19.90;97.80;;;;;;5095473;28;20379;-64
2021/08/27 09:28:16;;;;;;;1.00;1.00;;;19.70;97.20;;;;;;5095038;28;20411;-63
2021/08/27 09:30:52;;;;;;;1.63;1.03;;;19.40;97.90;;;;;;5095487;28;20398;-63
2021/08/27 09:33:23;;;;;;;1.27;0.97;;;19.30;98.60;;;;;;5095159;28;20454;-64
2021/08/27 09:36:00;;;;;;;1.00;0.90;;;19.40;99.60;;;;;;5095359;28;20757;-64
2021/08/27 09:38:37;;;;;;;0.90;0.90;;;19.90;98.40;;;;;;5094705;28;20430;-63
2021/08/27 09:41:12;;;;;;;0.83;0.83;;;20.30;97.30;;;;;;5078514;28;20414;-63
2021/08/27 09:43:50;;;;;;;1.27;1.17;;;20.70;96.40;;;;;;5074752;28;20377;-65
2021/08/27 09:46:31;;;;;;;1.20;1.10;;;21.20;96.20;;;;;;5074718;28;20444;-64
2021/08/27 09:48:57;;;;;;;1.80;1.10;;;22.70;96.30;;;;;;5074544;28;20938;-65
2021/08/27 09:51:43;;;;;;;1.30;1.20;;;24.20;93.30;;;;;;5074558;28;20494;-65
2021/08/27 09:54:09;;;;;;;1.30;1.20;;;24.60;90.30;;;;;;5074660;28;20453;-64
2021/08/27 09:56:53;;;;;;;1.40;1.30;;;24.10;90.40;;;;;;5074293;28;20504;-66
2021/08/27 09:59:29;;;;;;;1.47;1.37;;;23.30;91.30;;;;;;5074383;28;20203;-66
2021/08/27 10:01:55;;;;;;;1.27;1.17;;;22.50;91.80;;;;;;5074563;28;20394;-64
2021/08/27 10:04:21;;;;;;;0.80;0.77;;;21.90;92.40;;;;;;5074502;28;20951;-64
2021/08/27 10:06:46;;;;;;;1.50;1.00;;;21.50;93.10;;;;;;5073706;28;20197;-63
2021/08/27 10:09:12;;;;;;;2.40;1.20;;;21.90;94.70;;;;;;5074243;28;20524;-64
2021/08/27 10:11:38;;;;;;;3.40;1.40;;;22.90;93.80;;;;;;5074125;28;20169;-65
2021/08/27 10:14:05;;;;;;;1.60;1.17;;;24.20;91.40;;;;;;5073398;28;20164;-65
2021/08/27 10:16:31;;;;;;;1.57;0.97;;;25.30;89.60;;;;;;5073859;28;20886;-65
2021/08/27 10:18:58;;;;;;;1.23;1.07;;;25.50;87.70;;;;;;5073951;28;20427;-64
2021/08/27 10:21:24;;;;;;;0.87;0.87;;;25.00;87.50;;;;;;5074033;28;20473;-65
2021/08/27 10:23:50;;;;;;;2.20;1.10;;;24.40;87.70;;;;;;5074071;28;20410;-64
2021/08/27 10:26:18;;;;;;;1.20;1.10;;;24.10;85.20;;;;;;5073965;28;20421;-64
2021/08/27 10:28:45;;;;;;;2.93;0.93;;;23.70;86.20;;;;;;5073301;28;20177;-64
2021/08/27 10:31:11;;;;;;;2.77;2.57;;;23.30;89.30;;;;;;5074032;28;20367;-64
2021/08/27 10:33:57;;;;;;;3.10;2.73;;;22.90;90.20;;;;;;5073692;28;20462;-62
2021/08/27 10:36:23;;;;;;;0.80;0.80;;;22.50;91.20;;;;;;5073942;28;20382;-63
2021/08/27 10:38:55;;;;;;;1.57;1.07;;;22.20;91.30;;;;;;5073419;28;20782;-64
2021/08/27 10:41:37;;;;;;;1.80;1.20;;;21.80;91.00;;;;;;5092927;28;20172;-63
2021/08/27 10:44:12;;;;;;;0.97;0.97;;;21.50;91.40;;;;;;5094054;28;20920;-64
2021/08/27 10:46:47;;;;;;;1.27;1.17;;;21.00;91.60;;;;;;5093854;28;20424;-64
2021/08/27 10:49:17;;;;;;;1.27;1.23;;;20.70;92.70;;;;;;5093798;28;20401;-64
2021/08/27 10:51:45;;;;;;;1.63;1.53;;;20.80;93.80;;;;;;5093588;28;20488;-64
2021/08/27 10:54:12;;;;;;;2.47;1.20;;;21.00;93.20;;;;;;5093785;28;20405;-64
2021/08/27 10:56:50;;;;;;;1.60;1.50;;;21.20;92.40;;;;;;5093600;28;20378;-65
2021/08/27 10:59:17;;;;;;;1.60;1.50;;;21.10;92.90;;;;;;5093714;28;20474;-63
2021/08/27 11:01:59;;;;;;;1.50;1.40;;;21.00;92.90;;;;;;5093801;28;20405;-64
2021/08/27 11:04:26;;;;;;;1.70;1.60;;;20.90;93.50;;;;;;5093681;28;20867;-64
2021/08/27 11:06:56;;;;;;;2.13;2.03;;;20.70;93.60;;;;;;5093135;28;20838;-63
2021/08/27 11:09:21;;;;;;;1.73;1.63;;;20.40;94.10;;;;;;5093728;28;20425;-63
2021/08/27 11:12:05;;;;;;;1.70;1.63;;;20.10;94.70;;;;;;5093734;28;20403;-64
2021/08/27 11:14:31;;;;;;;1.67;1.57;;;19.70;95.30;;;;;;5093668;28;20176;-64
2021/08/27 11:16:59;;;;;;;2.73;1.80;;;19.30;96.10;;;;;;5091666;28;20437;-64
2021/08/27 11:19:35;;;;;;;1.73;1.63;;;18.90;96.90;;;;;;5093757;28;20578;-63
2021/08/27 11:22:09;;;;;;;2.10;2.00;;;18.60;97.70;;;;;;5092380;28;20408;-64
2021/08/27 11:24:36;;;;;;;3.10;2.10;;;18.50;98.30;;;;;;5093280;28;20406;-64
2021/08/27 11:27:04;;;;;;;2.07;1.87;;;18.20;98.50;;;;;;5092975;28;20452;-64
2021/08/27 11:29:33;;;;;;;1.50;1.40;;;18.00;98.40;;;;;;5093198;28;20520;-64
2021/08/27 11:32:16;;;;;;;5.10;2.10;;;17.90;98.30;;;;;;5093302;28;20422;-64
2021/08/27 11:34:55;;;;;;;2.03;1.93;;;17.80;98.30;;;;;;5093418;28;20401;-65
2021/08/27 11:37:38;;;;;;;4.50;1.87;;;17.80;98.20;;;;;;5092573;28;20446;-65
2021/08/27 11:40:06;;;;;;;1.93;1.47;;;17.80;99.00;;;;;;5084724;28;20438;-65
2021/08/27 11:42:32;;;;;;;1.67;1.57;;;17.90;99.30;;;;;;5073233;28;20389;-64
2021/08/27 11:45:11;;;;;;;2.20;2.00;;;18.00;99.10;;;;;;5073159;28;20452;-63
2021/08/27 11:47:45;;;;;;;1.57;1.47;;;18.20;99.30;;;;;;5072374;28;20461;-64
2021/08/27 11:50:23;;;;;;;2.13;1.70;;;18.40;99.60;;;;;;5072855;28;20390;-64
2021/08/27 11:52:54;;;;;;;2.93;1.90;;;18.60;98.70;;;;;;5073066;28;20399;-64
2021/08/27 11:55:20;;;;;;;1.70;1.60;;;18.70;97.70;;;;;;5073110;28;20381;-64
2021/08/27 11:57:51;;;;;;;2.13;2.00;;;18.60;97.40;;;;;;5072417;28;20411;-64
2021/08/27 12:00:21;;;;;;;2.47;1.73;;;18.50;98.00;;;;;;5072577;28;20188;-64
2021/08/27 12:02:54;;;;;;;2.13;1.93;;;18.30;98.50;;;;;;5073010;28;20378;-64
2021/08/27 12:05:21;;;;;;;3.33;3.03;;;18.10;99.20;;;;;;5071674;28;20385;-64
2021/08/27 12:08:05;;;;;;;2.67;2.43;;;18.00;99.90;;;;;;5072291;28;20592;-64
2021/08/27 12:10:33;;;;;;;2.77;2.57;;;17.80;99.90;;;;;;5071781;28;20451;-65
2021/08/27 12:13:01;;;;;;;2.73;2.50;;;17.60;99.90;;;;;;5071697;28;20508;-63
2021/08/27 12:15:32;;;;;;;2.43;2.33;;;17.50;99.90;;;;;;5072674;28;20811;-64
2021/08/27 12:18:09;;;;;;;2.53;1.70;;;17.40;99.90;;;;;;5072335;28;20769;-64
2021/08/27 12:20:38;;;;;;;3.37;2.50;;;17.50;99.90;;;;;;5072606;28;20432;-63
2021/08/27 12:23:12;;;;;;;2.70;2.30;;;17.60;99.90;;;;;;5072410;28;20438;-65
2021/08/27 12:25:41;;;;;;;1.70;1.60;;;17.80;99.90;;;;;;5071140;28;20928;-63
2021/08/27 12:28:07;;;;;;;1.80;1.70;;;18.00;99.90;;;;;;5070650;28;20405;-63
2021/08/27 12:30:34;;;;;;;2.13;2.03;;;18.20;99.90;;;;;;5072699;28;20402;-63
2021/08/27 12:33:05;;;;;;;2.10;2.00;;;18.40;99.90;;;;;;5072395;28;20419;-63
2021/08/27 12:35:34;;;;;;;1.93;1.83;;;18.70;99.90;;;;;;5072579;28;20768;-63
2021/08/27 12:38:00;;;;;;;1.60;1.50;;;19.00;99.90;;;;;;5074840;28;20421;-63
2021/08/27 12:40:28;;;;;;;3.00;1.63;;;19.20;99.90;;;;;;5075982;28;20403;-63
2021/08/27 12:43:01;;;;;;;4.07;2.40;;;19.40;99.90;;;;;;5075836;28;20442;-64
2021/08/27 12:45:27;;;;;;;1.50;1.23;;;19.50;99.70;;;;;;5075947;28;20403;-63
2021/08/27 12:48:04;;;;;;;1.23;1.20;;;19.60;98.80;;;;;;5075311;28;20537;-63
2021/08/27 12:50:30;;;;;;;2.10;2.00;;;19.80;97.90;;;;;;5075945;28;20454;-63
2021/08/27 12:53:04;;;;;;;1.57;1.47;;;19.90;98.40;;;;;;5075667;28;20386;-63
2021/08/27 12:55:31;;;;;;;2.13;1.80;;;20.00;97.90;;;;;;5074529;28;20822;-63